Time;durP1;ratioP1;P1;durP2;ratioP2;P2;SDS_P1;SDS_P2;PMS_P1;PMS_P2;Temp;Humidity;BMP_temperature;BMP_pressure;BME280_temperature;BME280_humidity;BME280_pressure;Samples;Min_cycle;Max_cycle;Signal;HPM_P1;HPM_P2
2023/05/10 00:01:46;;;;;;;0.10;0.10;;;14.00;99.90;;;;;;5092140;28;20020;-89
2023/05/10 00:04:12;;;;;;;0.00;0.00;;;13.90;99.90;;;;;;5092708;28;20452;-90
2023/05/10 00:06:37;;;;;;;0.10;0.10;;;13.90;99.90;;;;;;5091325;28;20396;-89
2023/05/10 00:09:03;;;;;;;0.00;0.00;;;13.90;99.90;;;;;;5091430;28;20063;-88
2023/05/10 00:11:29;;;;;;;0.00;0.00;;;13.80;99.90;;;;;;5092515;28;20111;-89
2023/05/10 00:13:55;;;;;;;0.00;0.00;;;13.80;99.90;;;;;;5092823;28;20427;-90
2023/05/10 00:16:20;;;;;;;0.00;0.00;;;13.70;99.90;;;;;;5092560;28;20361;-88
2023/05/10 00:18:46;;;;;;;0.00;0.00;;;13.40;99.90;;;;;;5091094;28;20138;-89
2023/05/10 00:21:12;;;;;;;0.00;0.00;;;13.40;99.90;;;;;;5091229;28;20152;-89
2023/05/10 00:23:37;;;;;;;0.10;0.10;;;13.40;99.90;;;;;;5091192;28;20127;-89
2023/05/10 00:26:03;;;;;;;0.00;0.00;;;13.40;99.90;;;;;;5092433;28;20070;-89
2023/05/10 00:28:29;;;;;;;0.00;0.00;;;13.50;99.90;;;;;;5091550;28;20034;-89
2023/05/10 00:30:56;;;;;;;0.10;0.10;;;13.40;99.90;;;;;;5090615;28;20057;-89
2023/05/10 00:33:21;;;;;;;0.00;0.00;;;13.40;99.90;;;;;;5096581;28;20046;-89
2023/05/10 00:35:47;;;;;;;0.00;0.00;;;13.40;99.90;;;;;;5095188;28;20559;-89
2023/05/10 00:38:13;;;;;;;0.10;0.10;;;13.40;99.90;;;;;;5096803;28;20020;-88
2023/05/10 00:40:38;;;;;;;0.00;0.00;;;13.50;99.90;;;;;;5096350;28;20024;-89
2023/05/10 00:43:04;;;;;;;0.00;0.00;;;13.50;99.90;;;;;;5095175;28;20383;-89
2023/05/10 00:45:32;;;;;;;0.00;0.00;;;13.50;99.90;;;;;;5095730;28;20043;-89
2023/05/10 00:47:59;;;;;;;0.00;0.00;;;13.60;99.90;;;;;;5096283;28;20020;-89
2023/05/10 00:50:25;;;;;;;0.00;0.00;;;13.50;99.90;;;;;;5094947;28;20028;-89
2023/05/10 00:52:52;;;;;;;0.00;0.00;;;13.60;99.90;;;;;;5096208;28;20055;-89
2023/05/10 00:55:19;;;;;;;0.13;0.13;;;13.60;99.90;;;;;;5096036;28;20055;-89
2023/05/10 00:57:45;;;;;;;0.00;0.00;;;13.70;99.90;;;;;;5096280;28;20103;-89
2023/05/10 01:00:12;;;;;;;0.28;0.28;;;13.70;99.90;;;;;;5095593;28;20056;-88
2023/05/10 01:02:38;;;;;;;0.17;0.17;;;13.70;99.90;;;;;;5095990;28;20383;-89
2023/05/10 01:05:05;;;;;;;0.08;0.08;;;13.50;99.90;;;;;;5094841;28;20043;-89
2023/05/10 01:07:30;;;;;;;0.00;0.00;;;13.60;99.90;;;;;;5095962;28;20366;-89
2023/05/10 01:09:57;;;;;;;0.10;0.10;;;13.60;99.90;;;;;;5094538;28;20138;-89
2023/05/10 01:12:23;;;;;;;0.00;0.00;;;13.70;99.90;;;;;;5095940;28;20016;-90
2023/05/10 01:14:49;;;;;;;0.82;0.80;;;13.70;99.90;;;;;;5094284;28;20028;-89
2023/05/10 01:17:16;;;;;;;0.00;0.00;;;13.50;99.90;;;;;;5094554;28;20077;-89
2023/05/10 01:19:41;;;;;;;0.10;0.10;;;13.40;99.90;;;;;;5095282;28;20052;-89
2023/05/10 01:22:22;;;;;;;0.00;0.00;;;13.60;99.90;;;;;;5094388;28;20077;-89
2023/05/10 01:25:17;;;;;;;0.00;0.00;;;13.60;99.90;;;;;;5095518;28;20078;-89
2023/05/10 01:28:01;;;;;;;0.08;0.08;;;13.90;99.90;;;;;;5095660;28;20028;-89
2023/05/10 01:30:43;;;;;;;0.00;0.00;;;13.90;99.90;;;;;;5095060;28;20104;-89
2023/05/10 01:33:30;;;;;;;0.00;0.00;;;13.90;99.90;;;;;;5095869;28;20028;-89
2023/05/10 01:36:25;;;;;;;0.00;0.00;;;13.90;99.90;;;;;;5095297;28;20503;-89
2023/05/10 01:38:58;;;;;;;0.00;0.00;;;13.80;99.90;;;;;;5095414;28;20467;-89
2023/05/10 01:41:52;;;;;;;0.10;0.10;;;13.90;99.90;;;;;;5095258;28;20077;-89
2023/05/10 01:44:23;;;;;;;0.10;0.10;;;13.90;99.90;;;;;;5094580;28;20466;-89
2023/05/10 01:46:56;;;;;;;0.00;0.00;;;13.70;99.90;;;;;;5094252;28;20103;-89
2023/05/10 01:49:28;;;;;;;0.10;0.10;;;13.50;99.90;;;;;;5094879;28;20024;-89
2023/05/10 01:52:04;;;;;;;0.00;0.00;;;13.60;99.90;;;;;;5128177;27;20035;-89
2023/05/10 01:54:30;;;;;;;0.00;0.00;;;13.70;99.90;;;;;;5094717;28;20024;-89
2023/05/10 01:57:02;;;;;;;0.17;0.17;;;13.70;99.90;;;;;;5095234;28;20025;-88
2023/05/10 01:59:36;;;;;;;0.05;0.05;;;13.50;99.90;;;;;;5094581;28;20058;-89
2023/05/10 02:02:04;;;;;;;0.15;0.15;;;13.50;99.90;;;;;;5093526;28;20541;-89
2023/05/10 02:04:31;;;;;;;0.10;0.10;;;13.60;99.90;;;;;;5094972;28;20040;-88
2023/05/10 02:06:57;;;;;;;0.03;0.03;;;13.50;99.90;;;;;;5094845;28;20040;-89
2023/05/10 02:09:24;;;;;;;0.00;0.00;;;13.60;99.90;;;;;;5094667;28;20028;-92
2023/05/10 02:11:50;;;;;;;0.00;0.00;;;13.70;99.90;;;;;;5093652;28;20534;-92
2023/05/10 02:14:18;;;;;;;0.00;0.00;;;13.60;99.90;;;;;;5092925;28;20040;-92
2023/05/10 02:16:46;;;;;;;0.10;0.10;;;13.60;99.90;;;;;;5094756;28;20028;-91
2023/05/10 02:19:13;;;;;;;0.00;0.00;;;13.70;99.90;;;;;;5094600;28;20052;-91
2023/05/10 02:21:40;;;;;;;0.03;0.03;;;13.80;99.90;;;;;;5094869;28;20024;-91
2023/05/10 02:24:08;;;;;;;0.10;0.10;;;13.70;99.90;;;;;;5094525;28;20055;-92
2023/05/10 02:26:35;;;;;;;0.00;0.00;;;13.60;99.90;;;;;;5094488;28;20153;-92
2023/05/10 02:29:03;;;;;;;0.05;0.05;;;13.70;99.90;;;;;;5094355;28;20109;-91
2023/05/10 02:31:32;;;;;;;0.00;0.00;;;13.80;99.90;;;;;;5094328;28;20028;-92
2023/05/10 02:33:59;;;;;;;0.00;0.00;;;13.70;99.90;;;;;;5094482;28;20468;-91
2023/05/10 02:36:27;;;;;;;0.00;0.00;;;13.80;99.90;;;;;;5093827;28;20035;-91
2023/05/10 02:38:53;;;;;;;0.10;0.10;;;13.70;99.90;;;;;;5094554;28;20472;-92
2023/05/10 02:41:24;;;;;;;0.15;0.15;;;13.60;99.90;;;;;;5093815;28;20024;-91
2023/05/10 02:43:52;;;;;;;0.15;0.10;;;13.70;99.90;;;;;;5091904;28;20036;-91
2023/05/10 02:46:18;;;;;;;0.10;0.10;;;13.70;99.90;;;;;;5093952;28;20034;-91
2023/05/10 02:48:44;;;;;;;0.00;0.00;;;13.60;99.90;;;;;;5094062;28;20032;-91
2023/05/10 02:51:14;;;;;;;0.10;0.10;;;13.60;99.90;;;;;;5092716;28;20426;-92
2023/05/10 02:53:43;;;;;;;0.03;0.03;;;13.60;99.90;;;;;;5093556;28;20099;-92
2023/05/10 02:56:15;;;;;;;0.00;0.00;;;13.60;99.90;;;;;;5092285;28;20100;-92
2023/05/10 02:58:40;;;;;;;0.00;0.00;;;13.70;99.90;;;;;;5094286;28;20115;-91
2023/05/10 03:01:07;;;;;;;0.40;0.40;;;13.80;99.90;;;;;;5092671;28;20110;-91
2023/05/10 03:03:33;;;;;;;0.10;0.10;;;13.80;99.90;;;;;;5092457;28;20484;-91
2023/05/10 03:05:59;;;;;;;0.00;0.00;;;13.80;99.90;;;;;;5092580;28;20059;-91
2023/05/10 03:08:25;;;;;;;0.03;0.03;;;13.70;99.90;;;;;;5093664;28;20016;-91
2023/05/10 03:11:12;;;;;;;0.00;0.00;;;13.90;99.90;;;;;;5093582;28;20028;-92
2023/05/10 03:13:41;;;;;;;0.10;0.10;;;14.00;99.90;;;;;;5093795;28;20384;-91
2023/05/10 03:16:15;;;;;;;0.10;0.10;;;13.90;99.90;;;;;;5093537;28;20024;-91
2023/05/10 03:19:11;;;;;;;0.00;0.00;;;13.90;99.90;;;;;;5092235;28;20024;-91
2023/05/10 03:21:41;;;;;;;0.00;0.00;;;13.90;99.90;;;;;;5093410;28;20495;-91
2023/05/10 03:24:08;;;;;;;0.10;0.10;;;13.80;99.90;;;;;;5093252;28;20430;-91
2023/05/10 03:26:36;;;;;;;0.10;0.10;;;13.90;99.90;;;;;;5093028;28;20085;-91
2023/05/10 03:29:03;;;;;;;0.00;0.00;;;13.90;99.90;;;;;;5093206;28;20107;-92
2023/05/10 03:31:28;;;;;;;0.13;0.13;;;14.00;99.90;;;;;;5093435;28;20024;-92
2023/05/10 03:33:54;;;;;;;0.10;0.10;;;13.90;99.90;;;;;;5093492;28;20388;-92
2023/05/10 03:36:20;;;;;;;0.00;0.00;;;14.00;99.90;;;;;;5093221;28;20012;-91
2023/05/10 03:38:45;;;;;;;0.20;0.20;;;13.90;99.90;;;;;;5093126;28;20043;-91
2023/05/10 03:41:11;;;;;;;0.00;0.00;;;13.90;99.90;;;;;;5092558;28;20070;-92
2023/05/10 03:43:36;;;;;;;0.00;0.00;;;13.90;99.90;;;;;;5092050;28;20075;-91
2023/05/10 03:46:05;;;;;;;0.00;0.00;;;13.90;99.90;;;;;;5092931;28;20020;-92
2023/05/10 03:48:32;;;;;;;0.00;0.00;;;14.00;99.90;;;;;;5093181;28;20024;-92
2023/05/10 03:50:58;;;;;;;0.10;0.10;;;13.90;99.90;;;;;;5091892;28;20066;-91
2023/05/10 03:53:24;;;;;;;0.00;0.00;;;14.00;99.90;;;;;;5091775;28;20492;-92
2023/05/10 03:55:50;;;;;;;0.00;0.00;;;13.90;99.90;;;;;;5092722;28;20020;-92
2023/05/10 03:58:15;;;;;;;0.15;0.15;;;13.90;99.90;;;;;;5092028;28;20162;-92
2023/05/10 04:00:43;;;;;;;0.00;0.00;;;14.00;99.90;;;;;;5092892;28;20115;-91
2023/05/10 04:03:09;;;;;;;0.00;0.00;;;13.90;99.90;;;;;;5092672;28;20408;-92
2023/05/10 04:05:36;;;;;;;0.00;0.00;;;13.90;99.90;;;;;;5091514;28;20039;-92
2023/05/10 04:08:02;;;;;;;0.00;0.00;;;13.90;99.90;;;;;;5091416;28;20031;-91
2023/05/10 04:10:28;;;;;;;0.00;0.00;;;13.80;99.90;;;;;;5091576;28;20032;-91
2023/05/10 04:12:53;;;;;;;0.00;0.00;;;13.90;99.90;;;;;;5091605;28;20025;-92
2023/05/10 04:15:19;;;;;;;0.00;0.00;;;13.70;99.90;;;;;;5092616;28;20036;-92
2023/05/10 04:17:45;;;;;;;0.00;0.00;;;13.70;99.90;;;;;;5092858;28;20027;-92
2023/05/10 04:20:11;;;;;;;0.00;0.00;;;13.60;99.90;;;;;;5092728;28;20056;-92
2023/05/10 04:22:37;;;;;;;0.00;0.00;;;13.70;99.90;;;;;;5091515;28;20020;-91
2023/05/10 04:25:04;;;;;;;0.00;0.00;;;13.70;99.90;;;;;;5091018;28;20472;-91
2023/05/10 04:27:29;;;;;;;0.00;0.00;;;13.60;99.90;;;;;;5091295;28;20028;-92
2023/05/10 04:29:55;;;;;;;0.00;0.00;;;13.60;99.90;;;;;;5093050;28;20020;-92
2023/05/10 04:32:20;;;;;;;0.00;0.00;;;13.60;99.90;;;;;;5091468;28;20461;-91
2023/05/10 04:34:46;;;;;;;0.00;0.00;;;13.60;99.90;;;;;;5091484;28;20020;-92
2023/05/10 04:37:12;;;;;;;0.00;0.00;;;13.50;99.90;;;;;;5090860;28;20032;-90
2023/05/10 04:39:38;;;;;;;0.00;0.00;;;13.60;99.90;;;;;;5092445;28;20020;-91
2023/05/10 04:42:05;;;;;;;0.00;0.00;;;13.50;99.90;;;;;;5091536;28;20039;-91
2023/05/10 04:44:31;;;;;;;0.00;0.00;;;13.60;99.90;;;;;;5092240;28;20036;-92
2023/05/10 04:46:57;;;;;;;0.10;0.10;;;13.60;99.90;;;;;;5091205;28;20030;-91
2023/05/10 04:49:23;;;;;;;0.00;0.00;;;13.50;99.90;;;;;;5092481;28;20479;-91
2023/05/10 04:51:48;;;;;;;0.20;0.20;;;13.50;99.90;;;;;;5090695;28;20062;-91
2023/05/10 04:54:14;;;;;;;0.20;0.20;;;13.50;99.90;;;;;;5091548;28;20543;-92
2023/05/10 04:56:40;;;;;;;0.00;0.00;;;13.40;99.90;;;;;;5090987;28;20032;-91
2023/05/10 04:59:06;;;;;;;0.00;0.00;;;13.50;99.90;;;;;;5092213;28;20032;-91
2023/05/10 05:01:32;;;;;;;0.10;0.10;;;13.40;99.90;;;;;;5093041;28;20073;-92
2023/05/10 05:03:58;;;;;;;0.10;0.10;;;13.40;99.90;;;;;;5090795;28;20102;-91
2023/05/10 05:06:24;;;;;;;0.00;0.00;;;13.40;99.90;;;;;;5090734;28;20043;-91
2023/05/10 05:08:50;;;;;;;0.08;0.08;;;13.20;99.90;;;;;;5092277;28;20016;-92
2023/05/10 05:11:17;;;;;;;0.00;0.00;;;13.20;99.90;;;;;;5092210;28;20097;-91
2023/05/10 05:13:43;;;;;;;0.70;0.52;;;13.20;99.90;;;;;;5091470;28;20051;-91
2023/05/10 05:16:08;;;;;;;0.00;0.00;;;13.20;99.90;;;;;;5091006;28;20027;-91
2023/05/10 05:18:34;;;;;;;0.10;0.10;;;13.20;99.90;;;;;;5092846;28;20016;-92
2023/05/10 05:21:00;;;;;;;0.35;0.20;;;13.30;99.90;;;;;;5095358;28;20111;-91
2023/05/10 05:23:26;;;;;;;0.10;0.10;;;13.20;99.90;;;;;;5095960;28;20020;-91
2023/05/10 05:25:53;;;;;;;0.00;0.00;;;13.20;99.90;;;;;;5095966;28;20044;-92
2023/05/10 05:28:20;;;;;;;0.00;0.00;;;13.10;99.90;;;;;;5095051;28;20020;-91
2023/05/10 05:30:46;;;;;;;0.20;0.10;;;13.30;99.90;;;;;;5094820;28;20605;-91
2023/05/10 05:33:13;;;;;;;0.00;0.00;;;13.30;99.90;;;;;;5096059;28;20056;-91
2023/05/10 05:35:39;;;;;;;0.10;0.10;;;13.20;99.90;;;;;;5095849;28;20024;-91
2023/05/10 05:38:05;;;;;;;0.10;0.10;;;13.10;99.90;;;;;;5096258;28;20054;-94
2023/05/10 05:40:30;;;;;;;0.10;0.10;;;13.10;99.90;;;;;;5095777;28;20484;-94
2023/05/10 05:42:56;;;;;;;0.00;0.00;;;13.60;99.90;;;;;;5095497;28;20020;-90
2023/05/10 05:45:22;;;;;;;0.60;0.38;;;13.80;99.90;;;;;;5094092;28;20039;-92
2023/05/10 05:47:47;;;;;;;0.10;0.10;;;13.80;99.90;;;;;;5095152;28;20020;-92
2023/05/10 05:50:13;;;;;;;0.00;0.00;;;13.90;99.90;;;;;;5094894;28;20111;-90
2023/05/10 05:52:39;;;;;;;0.00;0.00;;;13.80;99.90;;;;;;5095223;28;20472;-93
2023/05/10 05:55:05;;;;;;;0.00;0.00;;;13.90;99.90;;;;;;5096603;28;20028;-92
2023/05/10 05:57:31;;;;;;;0.00;0.00;;;13.80;99.90;;;;;;5095508;28;20020;-91
2023/05/10 05:59:56;;;;;;;0.08;0.08;;;13.80;99.90;;;;;;5095612;28;20028;-92
2023/05/10 06:02:22;;;;;;;0.00;0.00;;;13.70;99.90;;;;;;5095904;28;20433;-89
2023/05/10 06:04:47;;;;;;;3.50;0.57;;;13.70;99.90;;;;;;5094492;28;20032;-90
2023/05/10 06:07:13;;;;;;;0.08;0.08;;;13.70;99.90;;;;;;5094633;28;20028;-90
2023/05/10 06:09:39;;;;;;;0.00;0.00;;;13.80;99.90;;;;;;5093317;28;20105;-90
2023/05/10 06:12:04;;;;;;;0.40;0.40;;;13.70;99.90;;;;;;5094935;28;20024;-90
2023/05/10 06:14:30;;;;;;;0.20;0.20;;;13.80;99.90;;;;;;5094683;28;20499;-90
2023/05/10 06:16:56;;;;;;;0.10;0.10;;;13.80;99.90;;;;;;5093026;28;20024;-90
2023/05/10 06:19:22;;;;;;;0.10;0.10;;;13.80;99.90;;;;;;5092503;28;20120;-90
2023/05/10 06:21:47;;;;;;;0.00;0.00;;;13.90;99.90;;;;;;5093175;28;20051;-89
2023/05/10 06:24:13;;;;;;;0.20;0.20;;;13.90;99.90;;;;;;5093120;28;20040;-90
2023/05/10 06:26:38;;;;;;;0.00;0.00;;;14.00;99.90;;;;;;5093064;28;20094;-90
2023/05/10 06:29:04;;;;;;;0.22;0.05;;;13.90;99.90;;;;;;5093056;28;20055;-91
2023/05/10 06:31:30;;;;;;;0.00;0.00;;;13.90;99.90;;;;;;5094315;28;20043;-90
2023/05/10 06:33:55;;;;;;;0.08;0.08;;;13.90;99.90;;;;;;5092443;28;20020;-90
2023/05/10 06:36:21;;;;;;;0.00;0.00;;;14.10;99.90;;;;;;5094153;28;20028;-90
2023/05/10 06:38:47;;;;;;;0.10;0.10;;;14.10;99.90;;;;;;5094564;28;20035;-90
2023/05/10 06:41:13;;;;;;;0.10;0.10;;;14.20;99.90;;;;;;5093827;28;20028;-90
2023/05/10 06:43:41;;;;;;;0.00;0.00;;;14.40;99.90;;;;;;5093668;28;20029;-89
2023/05/10 06:46:07;;;;;;;0.00;0.00;;;14.30;99.90;;;;;;5093975;28;20496;-90
2023/05/10 06:48:32;;;;;;;0.10;0.10;;;14.20;99.90;;;;;;5092512;28;20047;-90
2023/05/10 06:50:58;;;;;;;0.25;0.25;;;14.40;99.90;;;;;;5093788;28;20034;-90
2023/05/10 06:53:24;;;;;;;0.20;0.20;;;14.40;99.90;;;;;;5093577;28;20447;-89
2023/05/10 06:55:50;;;;;;;0.10;0.10;;;14.60;99.90;;;;;;5092548;28;20105;-90
2023/05/10 06:58:15;;;;;;;0.00;0.00;;;14.50;99.90;;;;;;5093726;28;20024;-90
2023/05/10 07:00:43;;;;;;;0.00;0.00;;;14.70;99.90;;;;;;5092712;28;20046;-90
2023/05/10 07:03:10;;;;;;;0.00;0.00;;;14.70;99.90;;;;;;5093201;28;20032;-90
2023/05/10 07:05:36;;;;;;;0.10;0.10;;;14.60;99.90;;;;;;5093301;28;20484;-89
2023/05/10 07:08:01;;;;;;;0.00;0.00;;;14.90;99.90;;;;;;5093510;28;20016;-90
2023/05/10 07:10:27;;;;;;;0.17;0.17;;;15.00;99.90;;;;;;5093493;28;20487;-90
2023/05/10 07:12:53;;;;;;;0.00;0.00;;;14.70;99.90;;;;;;5092175;28;20021;-90
2023/05/10 07:15:19;;;;;;;0.10;0.10;;;14.60;99.90;;;;;;5093353;28;20505;-90
2023/05/10 07:17:45;;;;;;;0.00;0.00;;;14.70;99.90;;;;;;5091688;28;20547;-90
2023/05/10 07:20:11;;;;;;;0.32;0.20;;;14.90;99.90;;;;;;5092883;28;20451;-90
2023/05/10 07:22:37;;;;;;;0.22;0.22;;;14.90;99.90;;;;;;5091727;28;20122;-90
2023/05/10 07:25:04;;;;;;;0.13;0.13;;;15.00;99.90;;;;;;5093148;28;20044;-90
2023/05/10 07:27:30;;;;;;;0.10;0.10;;;15.20;99.90;;;;;;5093627;28;20062;-90
2023/05/10 07:29:56;;;;;;;0.00;0.00;;;15.10;99.90;;;;;;5091676;28;20059;-90
2023/05/10 07:32:22;;;;;;;0.50;0.50;;;15.20;99.90;;;;;;5091322;28;20020;-90
2023/05/10 07:34:47;;;;;;;0.00;0.00;;;15.10;99.90;;;;;;5093012;28;20109;-90
2023/05/10 07:37:13;;;;;;;0.00;0.00;;;14.90;99.90;;;;;;5091587;28;20062;-90
2023/05/10 07:39:38;;;;;;;0.35;0.17;;;14.90;99.90;;;;;;5091712;28;20039;-90
2023/05/10 07:42:05;;;;;;;0.00;0.00;;;14.70;99.90;;;;;;5091471;28;20031;-90
2023/05/10 07:44:31;;;;;;;0.00;0.00;;;14.60;99.90;;;;;;5092654;28;20066;-90
2023/05/10 07:46:56;;;;;;;0.00;0.00;;;14.50;99.90;;;;;;5092515;28;20020;-90
2023/05/10 07:49:24;;;;;;;0.20;0.20;;;14.60;99.90;;;;;;5092885;28;20035;-90
2023/05/10 07:51:49;;;;;;;0.00;0.00;;;14.80;99.90;;;;;;5092884;28;20107;-90
2023/05/10 07:54:15;;;;;;;0.10;0.10;;;14.90;99.90;;;;;;5092729;28;20161;-90
2023/05/10 07:56:45;;;;;;;0.00;0.00;;;15.20;99.90;;;;;;5092690;28;20017;-90
2023/05/10 07:59:15;;;;;;;0.00;0.00;;;15.30;99.90;;;;;;5092661;28;20043;-90
2023/05/10 08:01:41;;;;;;;0.32;0.32;;;15.60;99.90;;;;;;5092286;28;20024;-90
2023/05/10 08:04:07;;;;;;;0.10;0.10;;;15.80;99.90;;;;;;5091556;28;20036;-90
2023/05/10 08:06:33;;;;;;;0.30;0.30;;;15.50;99.90;;;;;;5092507;28;20131;-90
2023/05/10 08:08:58;;;;;;;0.28;0.15;;;15.50;99.90;;;;;;5091058;28;20058;-90
2023/05/10 08:11:24;;;;;;;0.00;0.00;;;15.60;99.90;;;;;;5091410;28;20016;-90
2023/05/10 08:13:50;;;;;;;0.10;0.10;;;15.80;99.90;;;;;;5092522;28;20067;-90
2023/05/10 08:16:17;;;;;;;0.17;0.17;;;15.90;99.90;;;;;;5092200;28;20059;-90
2023/05/10 08:18:44;;;;;;;0.00;0.00;;;15.70;99.90;;;;;;5090780;28;20502;-90
2023/05/10 08:21:11;;;;;;;0.10;0.10;;;15.90;99.90;;;;;;5092612;28;20027;-91
2023/05/10 08:23:37;;;;;;;0.63;0.20;;;16.00;99.90;;;;;;5092281;28;20035;-90
2023/05/10 08:26:02;;;;;;;0.00;0.00;;;16.00;99.90;;;;;;5090939;28;20123;-90
2023/05/10 08:28:28;;;;;;;0.00;0.00;;;16.00;99.90;;;;;;5092036;28;20042;-90
2023/05/10 08:30:54;;;;;;;0.00;0.00;;;16.10;99.90;;;;;;5090617;28;20032;-90
2023/05/10 08:33:20;;;;;;;0.45;0.20;;;16.00;99.90;;;;;;5090775;28;20074;-90
2023/05/10 08:35:45;;;;;;;0.00;0.00;;;16.00;99.90;;;;;;5090816;28;20085;-88
2023/05/10 08:38:12;;;;;;;0.08;0.08;;;16.10;99.90;;;;;;5091389;28;20024;-87
2023/05/10 08:40:41;;;;;;;0.00;0.00;;;16.30;99.90;;;;;;5091921;28;20024;-88
2023/05/10 08:43:09;;;;;;;0.00;0.00;;;16.40;99.90;;;;;;5090527;28;20024;-88
2023/05/10 08:45:40;;;;;;;0.10;0.10;;;16.50;99.90;;;;;;5091706;28;20032;-88
2023/05/10 08:48:07;;;;;;;0.00;0.00;;;16.30;99.90;;;;;;5092224;28;20032;-88
2023/05/10 08:50:36;;;;;;;0.10;0.10;;;16.20;99.90;;;;;;5091897;28;20400;-87
2023/05/10 08:53:05;;;;;;;0.10;0.10;;;16.20;99.90;;;;;;5093772;28;20133;-88
2023/05/10 08:55:32;;;;;;;0.10;0.10;;;16.30;99.90;;;;;;5095088;28;20024;-88
2023/05/10 08:57:59;;;;;;;0.00;0.00;;;16.30;99.90;;;;;;5096016;28;20067;-88
2023/05/10 09:00:25;;;;;;;0.25;0.25;;;16.50;99.90;;;;;;5095576;28;20081;-88
2023/05/10 09:02:51;;;;;;;0.00;0.00;;;16.50;99.90;;;;;;5095910;28;20028;-88
2023/05/10 09:05:17;;;;;;;0.20;0.20;;;16.40;99.90;;;;;;5095619;28;20044;-88
2023/05/10 09:07:43;;;;;;;0.00;0.00;;;16.40;99.90;;;;;;5095748;28;20396;-88
2023/05/10 09:10:10;;;;;;;0.10;0.10;;;16.20;99.90;;;;;;5095709;28;20031;-88
2023/05/10 09:12:36;;;;;;;0.00;0.00;;;16.10;99.90;;;;;;5095731;28;20020;-88
2023/05/10 09:15:03;;;;;;;0.25;0.25;;;16.10;99.90;;;;;;5095803;28;20043;-88
2023/05/10 09:17:29;;;;;;;0.20;0.20;;;16.00;99.90;;;;;;5094258;28;20024;-89
2023/05/10 09:20:03;;;;;;;0.00;0.00;;;15.80;99.90;;;;;;5095043;28;20085;-88
2023/05/10 09:22:30;;;;;;;0.00;0.00;;;15.80;99.90;;;;;;5094276;28;20020;-88
2023/05/10 09:25:11;;;;;;;0.10;0.10;;;15.60;99.90;;;;;;5095629;28;20051;-89
2023/05/10 09:27:38;;;;;;;0.10;0.10;;;15.40;99.90;;;;;;5095250;28;20020;-88
2023/05/10 09:30:06;;;;;;;0.13;0.13;;;15.60;99.90;;;;;;5095262;28;20028;-88
2023/05/10 09:32:43;;;;;;;0.13;0.13;;;15.40;99.90;;;;;;5095632;28;20025;-89
2023/05/10 09:35:11;;;;;;;0.00;0.00;;;15.40;99.90;;;;;;5095270;28;20032;-89
2023/05/10 09:37:39;;;;;;;0.00;0.00;;;15.50;99.90;;;;;;5094316;28;20024;-88
2023/05/10 09:40:07;;;;;;;0.10;0.10;;;15.60;99.90;;;;;;5095154;28;20024;-89
2023/05/10 09:42:34;;;;;;;0.22;0.10;;;15.50;99.90;;;;;;5094658;28;20012;-89
2023/05/10 09:45:02;;;;;;;0.00;0.00;;;15.60;99.90;;;;;;5095155;28;20047;-89
2023/05/10 09:47:28;;;;;;;0.03;0.03;;;15.50;99.90;;;;;;5095335;28;20399;-88
2023/05/10 09:49:57;;;;;;;0.13;0.13;;;15.50;99.90;;;;;;5094874;28;20032;-89
2023/05/10 09:52:23;;;;;;;0.38;0.30;;;15.70;99.90;;;;;;5095017;28;20039;-89
2023/05/10 09:54:57;;;;;;;0.00;0.00;;;15.70;99.90;;;;;;5095004;28;20020;-88
2023/05/10 09:57:25;;;;;;;0.00;0.00;;;15.80;99.90;;;;;;5094734;28;20097;-89
2023/05/10 09:59:53;;;;;;;0.10;0.10;;;15.80;99.90;;;;;;5094775;28;20125;-89
2023/05/10 10:02:19;;;;;;;0.00;0.00;;;15.60;99.90;;;;;;5094809;28;20031;-89
2023/05/10 10:04:48;;;;;;;0.20;0.20;;;15.70;99.90;;;;;;5094202;28;20560;-89
2023/05/10 10:07:14;;;;;;;0.10;0.10;;;15.40;99.90;;;;;;5093790;28;20039;-89
2023/05/10 10:09:40;;;;;;;0.20;0.20;;;15.40;99.90;;;;;;5094494;28;20032;-88
2023/05/10 10:12:06;;;;;;;0.55;0.40;;;15.50;99.90;;;;;;5094190;28;20020;-89
2023/05/10 10:14:31;;;;;;;0.20;0.20;;;15.40;99.90;;;;;;5094578;28;20545;-89
2023/05/10 10:17:00;;;;;;;0.03;0.03;;;15.50;99.90;;;;;;5094663;28;20035;-89
2023/05/10 10:19:26;;;;;;;0.10;0.10;;;15.60;99.90;;;;;;5094020;28;20161;-89
2023/05/10 10:21:52;;;;;;;0.10;0.10;;;15.80;99.90;;;;;;5093597;28;20102;-89
2023/05/10 10:24:18;;;;;;;2.10;0.75;;;16.00;99.90;;;;;;5093001;28;20032;-89
2023/05/10 10:26:44;;;;;;;0.00;0.00;;;16.00;99.90;;;;;;5093719;28;20028;-88
2023/05/10 10:29:36;;;;;;;0.13;0.10;;;15.80;99.90;;;;;;5094175;28;20028;-89
2023/05/10 10:32:37;;;;;;;0.20;0.20;;;15.70;99.90;;;;;;5031779;28;20045;-89
2023/05/10 10:35:04;;;;;;;0.00;0.00;;;16.10;99.90;;;;;;5032904;28;20451;-88
2023/05/10 10:37:46;;;;;;;0.00;0.00;;;15.90;99.90;;;;;;5031693;28;20041;-89
2023/05/10 10:40:27;;;;;;;0.00;0.00;;;15.80;99.90;;;;;;5031021;28;20029;-89
2023/05/10 10:42:53;;;;;;;0.30;0.20;;;15.90;99.90;;;;;;5032085;28;20041;-89
2023/05/10 10:45:19;;;;;;;0.10;0.10;;;16.00;99.90;;;;;;5031406;28;20030;-88
2023/05/10 10:47:45;;;;;;;0.10;0.10;;;16.10;99.90;;;;;;5014924;28;20064;-88
2023/05/10 10:50:15;;;;;;;0.00;0.00;;;16.00;99.90;;;;;;5031647;28;20037;-88
2023/05/10 10:52:45;;;;;;;0.10;0.10;;;16.20;99.90;;;;;;5031932;28;20026;-88
2023/05/10 10:55:13;;;;;;;0.03;0.03;;;16.30;99.90;;;;;;5030733;28;20421;-88
2023/05/10 10:58:04;;;;;;;0.00;0.00;;;16.20;99.90;;;;;;5031788;28;20026;-89
2023/05/10 11:00:30;;;;;;;0.08;0.08;;;16.20;99.90;;;;;;5031445;28;20040;-88
2023/05/10 11:02:56;;;;;;;0.10;0.10;;;16.10;99.90;;;;;;5031439;28;20039;-88
2023/05/10 11:05:25;;;;;;;0.00;0.00;;;16.30;99.90;;;;;;5031516;28;20041;-88
2023/05/10 11:07:53;;;;;;;0.10;0.10;;;16.60;99.90;;;;;;5035515;28;20444;-88
2023/05/10 11:10:20;;;;;;;0.00;0.00;;;16.60;99.90;;;;;;5073104;28;20025;-89
2023/05/10 11:13:02;;;;;;;0.10;0.10;;;16.30;99.90;;;;;;5073039;28;20085;-89
2023/05/10 11:15:39;;;;;;;0.03;0.03;;;16.40;99.90;;;;;;5072313;28;20503;-88
2023/05/10 11:18:18;;;;;;;0.00;0.00;;;16.60;99.90;;;;;;5073298;28;20017;-88
2023/05/10 11:20:49;;;;;;;0.10;0.10;;;17.00;99.90;;;;;;5072740;28;20056;-88
2023/05/10 11:23:15;;;;;;;0.00;0.00;;;17.10;99.90;;;;;;5072436;28;20139;-88
2023/05/10 11:25:45;;;;;;;0.10;0.10;;;17.20;99.90;;;;;;5072890;28;20116;-89
2023/05/10 11:28:14;;;;;;;0.05;0.05;;;17.10;99.90;;;;;;5073238;28;20023;-89
2023/05/10 11:30:41;;;;;;;0.00;0.00;;;17.80;99.90;;;;;;5071495;28;20075;-88
2023/05/10 11:33:08;;;;;;;0.00;0.00;;;18.20;99.90;;;;;;5072651;28;20093;-88
2023/05/10 11:35:40;;;;;;;0.00;0.00;;;18.10;99.90;;;;;;5072000;28;20496;-89
2023/05/10 11:38:10;;;;;;;0.03;0.03;;;18.40;99.90;;;;;;5072318;28;20033;-89
2023/05/10 11:40:36;;;;;;;0.17;0.10;;;18.50;99.90;;;;;;5072686;28;20060;-89
2023/05/10 11:43:02;;;;;;;0.05;0.05;;;18.70;99.90;;;;;;5079542;28;20048;-88
2023/05/10 11:45:29;;;;;;;0.00;0.00;;;18.20;99.90;;;;;;5093563;28;20048;-88
2023/05/10 11:47:58;;;;;;;0.10;0.10;;;18.40;99.90;;;;;;5092661;28;20065;-89
2023/05/10 11:50:25;;;;;;;0.30;0.30;;;18.60;99.90;;;;;;5092724;28;20514;-88
2023/05/10 11:52:55;;;;;;;0.00;0.00;;;18.40;99.90;;;;;;5092713;28;20077;-89
2023/05/10 11:55:21;;;;;;;0.08;0.08;;;18.20;99.90;;;;;;5091405;28;20048;-89
2023/05/10 11:57:47;;;;;;;0.20;0.10;;;18.20;99.90;;;;;;5092566;28;20059;-88
2023/05/10 12:00:14;;;;;;;0.05;0.05;;;18.70;99.90;;;;;;5092651;28;20081;-89
2023/05/10 12:02:40;;;;;;;0.20;0.20;;;18.80;99.90;;;;;;5092655;28;20031;-89
2023/05/10 12:05:07;;;;;;;0.35;0.10;;;18.20;99.90;;;;;;5092288;28;20036;-89
2023/05/10 12:07:32;;;;;;;0.00;0.00;;;18.40;99.90;;;;;;5124991;27;20032;-89
2023/05/10 12:10:04;;;;;;;0.00;0.00;;;18.60;99.90;;;;;;5091470;28;20111;-89
2023/05/10 12:12:43;;;;;;;0.10;0.10;;;19.20;99.90;;;;;;5092520;28;20039;-89
2023/05/10 12:15:23;;;;;;;0.10;0.10;;;19.40;99.90;;;;;;5092338;28;20472;-89
2023/05/10 12:17:50;;;;;;;0.13;0.13;;;19.90;99.90;;;;;;5092517;28;20085;-88
2023/05/10 12:20:17;;;;;;;0.20;0.20;;;19.70;99.90;;;;;;5092134;28;20062;-89
2023/05/10 12:22:49;;;;;;;0.00;0.00;;;20.00;99.90;;;;;;5091990;28;20046;-89
2023/05/10 12:25:16;;;;;;;0.00;0.00;;;20.80;99.90;;;;;;5092111;28;20384;-89
2023/05/10 12:27:52;;;;;;;0.30;0.15;;;21.40;99.90;;;;;;5096548;28;20549;-89
2023/05/10 12:30:24;;;;;;;0.10;0.10;;;22.50;99.90;;;;;;5099641;28;20384;-89
2023/05/10 12:32:51;;;;;;;0.00;0.00;;;22.20;99.90;;;;;;5098014;28;20554;-89
2023/05/10 12:35:17;;;;;;;0.10;0.10;;;22.90;99.90;;;;;;5097529;28;20491;-89
2023/05/10 12:37:43;;;;;;;1.17;0.80;;;21.60;99.90;;;;;;5098423;28;20031;-90
2023/05/10 12:40:10;;;;;;;0.20;0.20;;;20.90;99.90;;;;;;5098019;28;20043;-88
2023/05/10 12:42:38;;;;;;;0.00;0.00;;;20.30;99.90;;;;;;5098665;27;20024;-89
2023/05/10 12:45:08;;;;;;;0.00;0.00;;;20.10;99.90;;;;;;5097661;28;20399;-89
2023/05/10 12:47:34;;;;;;;0.00;0.00;;;20.00;99.90;;;;;;5097507;28;20024;-88
2023/05/10 12:50:01;;;;;;;0.00;0.00;;;19.60;99.90;;;;;;5097454;28;20028;-89
2023/05/10 12:52:27;;;;;;;0.10;0.10;;;20.40;99.90;;;;;;5097343;28;20036;-89